Blue River Lodge, Nebraska
Current Conditions -  °F | °C
As of 8:54 PM on Monday 22 Dec 2014 (Local Time) from KLNK Reporting Station
Overcast Overcast  
Wind Chill: 34°   Ceiling: 3300
Heat Index: 40°   Visibility: 10mi
Dew Point: 35°   Wind: 9mph
Humidity: 83%   Direction: 290°WNW
Pressure: 29.5"   Gusts: NA
Location:  40.5918°N, 96.9749°W
Report Text: KLNK 230254Z 29008KT 10SM BKN033 BKN055 OVC080 04/02 A2950 RMK AO2 SLP995 T00440017 51003
Loading
Personal Weather Stations






























Interactive Weather Map New forecast layout! Learn more

10-Day Weather Forecast

Advertisements
Track Severe Weather on mobile